createdAt,value
2019-05-18T00:01:43.763Z,29.00
2019-05-18T00:04:13.256Z,29.45
2019-05-18T00:06:42.718Z,28.65
2019-05-18T00:09:12.524Z,28.80
2019-05-18T00:11:42.380Z,28.95
2019-05-18T00:14:11.887Z,28.95
2019-05-18T00:16:41.384Z,27.77
2019-05-18T00:19:10.832Z,27.07
2019-05-18T00:21:40.710Z,27.50
2019-05-18T00:24:10.279Z,28.23
2019-05-18T00:26:39.735Z,26.37
2019-05-18T00:29:10.852Z,26.35
2019-05-18T00:31:40.446Z,27.45
2019-05-18T00:34:10.006Z,28.92
2019-05-18T00:36:39.470Z,25.85
2019-05-18T00:39:10.129Z,26.00
2019-05-18T00:41:39.633Z,26.85
2019-05-18T00:44:09.463Z,26.37
2019-05-18T00:46:38.960Z,26.12
2019-05-18T00:49:08.451Z,25.60
2019-05-18T00:51:37.977Z,26.75
2019-05-18T00:54:07.608Z,26.77
2019-05-18T00:56:37.091Z,27.00
2019-05-18T00:59:06.602Z,27.32
2019-05-18T01:01:36.050Z,27.27
2019-05-18T01:04:06.609Z,27.73
2019-05-18T01:06:36.062Z,27.85
2019-05-18T01:09:06.594Z,27.90
2019-05-18T01:11:36.156Z,26.55
2019-05-18T01:14:05.800Z,26.65
2019-05-18T01:16:35.309Z,27.77
2019-05-18T01:19:04.872Z,26.73
2019-05-18T01:21:34.467Z,27.20
2019-05-18T01:24:04.423Z,26.07
2019-05-18T01:26:34.250Z,26.75
2019-05-18T01:29:05.190Z,26.00
2019-05-18T01:31:35.082Z,27.40
2019-05-18T01:34:04.712Z,26.62
2019-05-18T01:36:34.169Z,25.32
2019-05-18T01:39:05.967Z,28.15
2019-05-18T01:41:35.842Z,28.60
2019-05-18T01:44:05.797Z,28.95
2019-05-18T01:46:35.260Z,28.87
2019-05-18T01:49:04.865Z,29.07
2019-05-18T01:51:34.411Z,31.77
2019-05-18T01:54:03.957Z,31.20
2019-05-18T01:56:33.455Z,29.57
2019-05-18T01:59:03.013Z,32.65
2019-05-18T02:01:32.454Z,30.95
2019-05-18T02:04:01.955Z,31.62
2019-05-18T02:06:31.870Z,30.27
2019-05-18T02:09:01.354Z,31.62
2019-05-18T02:11:32.223Z,31.80
2019-05-18T02:14:01.719Z,31.15
2019-05-18T02:16:34.288Z,32.45
2019-05-18T02:19:03.735Z,31.45
2019-05-18T02:21:33.225Z,31.48
2019-05-18T02:24:02.690Z,31.65
2019-05-18T02:26:32.182Z,30.95
2019-05-18T02:29:01.677Z,30.12
2019-05-18T02:31:31.144Z,29.52
2019-05-18T02:34:00.642Z,29.18
2019-05-18T02:36:30.100Z,30.92
2019-05-18T02:38:59.553Z,29.92
2019-05-18T02:41:29.047Z,28.95
2019-05-18T02:43:58.500Z,28.70
2019-05-18T02:46:28.472Z,28.83
2019-05-18T02:48:59.563Z,30.40
2019-05-18T02:51:29.048Z,28.60
2019-05-18T02:53:58.672Z,29.67
2019-05-18T02:56:28.167Z,29.65
2019-05-18T02:58:57.647Z,30.45
2019-05-18T03:01:27.366Z,28.40
2019-05-18T03:03:57.926Z,28.35
2019-05-18T03:06:28.412Z,28.87
2019-05-18T03:08:58.346Z,30.15
2019-05-18T03:11:28.230Z,30.88
2019-05-18T03:13:57.736Z,28.70
2019-05-18T03:16:27.232Z,28.65
2019-05-18T03:19:07.541Z,29.52
2019-05-18T03:21:28.267Z,28.83
2019-05-18T03:23:58.414Z,29.48
2019-05-18T03:26:28.258Z,28.52
2019-05-18T03:28:57.787Z,30.55
2019-05-18T03:31:27.280Z,28.25
2019-05-18T03:33:56.776Z,28.45
2019-05-18T03:36:26.337Z,30.65
2019-05-18T03:38:55.784Z,28.05
2019-05-18T03:41:25.266Z,30.08
2019-05-18T03:43:54.720Z,28.90
2019-05-18T03:46:24.303Z,30.70
2019-05-18T03:48:54.803Z,29.75
2019-05-18T03:51:24.305Z,29.48
2019-05-18T03:53:53.756Z,29.50
2019-05-18T03:56:23.708Z,28.35
2019-05-18T03:58:53.192Z,29.05
2019-05-18T04:01:22.716Z,28.10
2019-05-18T04:03:52.511Z,29.60
2019-05-18T04:06:21.983Z,28.95
2019-05-18T04:08:51.438Z,28.15
2019-05-18T04:11:20.922Z,29.02
2019-05-18T04:13:50.372Z,28.90
2019-05-18T04:16:19.880Z,29.48
2019-05-18T04:18:49.453Z,27.65
2019-05-18T04:21:19.008Z,27.75
2019-05-18T04:23:48.511Z,26.60
2019-05-18T04:26:18.012Z,26.62
2019-05-18T04:28:48.551Z,27.27
2019-05-18T04:31:18.040Z,28.52
2019-05-18T04:33:47.497Z,28.42
2019-05-18T04:36:16.998Z,28.12
2019-05-18T04:38:46.508Z,28.02
2019-05-18T04:41:17.468Z,29.67
2019-05-18T04:43:46.933Z,29.20
2019-05-18T04:46:16.784Z,29.37
2019-05-18T04:48:46.313Z,28.83
2019-05-18T04:51:17.335Z,29.87
2019-05-18T04:53:46.791Z,29.23
2019-05-18T04:56:16.295Z,28.80
2019-05-18T04:58:46.057Z,29.18
2019-05-18T05:01:15.564Z,29.55
2019-05-18T05:03:45.376Z,29.65
2019-05-18T05:06:14.939Z,28.40
2019-05-18T05:08:44.793Z,29.92
2019-05-18T05:11:14.284Z,27.55
2019-05-18T05:13:43.731Z,27.73
2019-05-18T05:16:13.599Z,29.67
2019-05-18T05:18:43.047Z,27.35
2019-05-18T05:21:12.537Z,28.32
2019-05-18T05:23:41.978Z,29.27
2019-05-18T05:26:11.471Z,29.07
2019-05-18T05:28:40.943Z,28.12
2019-05-18T05:31:10.424Z,28.75
2019-05-18T05:33:39.889Z,28.20
2019-05-18T05:36:09.676Z,28.35
2019-05-18T05:38:39.146Z,28.50
2019-05-18T05:41:08.662Z,28.00
2019-05-18T05:43:38.111Z,27.52
2019-05-18T05:46:07.614Z,27.70
2019-05-18T05:48:37.406Z,27.95
2019-05-18T05:51:06.866Z,27.90
2019-05-18T05:53:36.354Z,27.85
2019-05-18T05:56:05.805Z,28.15
2019-05-18T05:58:35.310Z,27.07
2019-05-18T06:01:04.849Z,25.80
2019-05-18T06:03:34.378Z,26.87
2019-05-18T06:06:03.918Z,26.30
2019-05-18T06:08:33.765Z,25.95
2019-05-18T06:11:03.261Z,23.87
2019-05-18T06:13:33.858Z,24.50
2019-05-18T06:16:03.310Z,25.00
2019-05-18T06:18:32.818Z,24.57
2019-05-18T06:21:02.332Z,25.37
2019-05-18T06:23:31.837Z,25.15
2019-05-18T06:26:01.396Z,23.70
2019-05-18T06:28:30.894Z,24.27
2019-05-18T06:31:01.194Z,24.67
2019-05-18T06:33:30.981Z,23.83
2019-05-18T06:36:00.467Z,25.08
2019-05-18T06:38:29.971Z,24.05
2019-05-18T06:40:59.451Z,24.43
2019-05-18T06:43:29.020Z,24.70
2019-05-18T06:45:58.837Z,24.05
2019-05-18T06:48:28.362Z,23.30
2019-05-18T06:51:06.716Z,23.42
2019-05-18T06:53:29.089Z,24.32
2019-05-18T06:55:58.998Z,23.18
2019-05-18T06:58:29.745Z,22.30
2019-05-18T07:00:59.650Z,21.90
2019-05-18T07:03:29.218Z,22.20
2019-05-18T07:05:58.641Z,21.85
2019-05-18T07:08:28.137Z,21.02
2019-05-18T07:10:57.611Z,20.90
2019-05-18T07:13:27.157Z,20.35
2019-05-18T07:15:56.653Z,20.97
2019-05-18T07:18:26.240Z,20.20
2019-05-18T07:20:55.693Z,19.52
2019-05-18T07:23:25.160Z,19.10
2019-05-18T07:25:54.660Z,18.50
2019-05-18T07:28:24.151Z,18.87
2019-05-18T07:30:53.643Z,19.25
2019-05-18T07:33:23.386Z,17.73
2019-05-18T07:35:53.263Z,18.35
2019-05-18T07:38:22.783Z,17.40
2019-05-18T07:40:52.300Z,16.45
2019-05-18T07:43:21.770Z,15.25
2019-05-18T07:45:51.275Z,14.87
2019-05-18T07:48:20.748Z,14.95
2019-05-18T07:50:50.818Z,15.65
2019-05-18T07:53:20.274Z,15.25
2019-05-18T07:55:49.819Z,14.98
2019-05-18T07:58:19.300Z,14.75
2019-05-18T08:00:48.796Z,14.45
2019-05-18T08:03:18.643Z,14.63
2019-05-18T08:05:48.298Z,15.55
2019-05-18T08:08:17.748Z,14.50
2019-05-18T08:10:47.250Z,14.25
2019-05-18T08:13:17.093Z,12.85
2019-05-18T08:15:46.592Z,11.97
2019-05-18T08:18:17.631Z,12.33
2019-05-18T08:20:47.152Z,12.30
2019-05-18T08:23:16.610Z,9.18
2019-05-18T08:25:46.133Z,8.73
2019-05-18T08:28:15.580Z,8.10
2019-05-18T08:30:45.203Z,7.10
2019-05-18T08:33:14.749Z,7.42
2019-05-18T08:35:44.224Z,6.92
2019-05-18T08:38:13.785Z,6.65
2019-05-18T08:40:43.334Z,5.85
2019-05-18T08:43:13.104Z,6.20
2019-05-18T08:45:42.594Z,7.10
2019-05-18T08:48:12.044Z,8.48
2019-05-18T08:50:42.960Z,7.22
2019-05-18T08:53:12.468Z,7.37
2019-05-18T08:55:41.971Z,8.23
2019-05-18T08:58:11.432Z,8.33
2019-05-18T09:00:40.919Z,7.80
2019-05-18T09:03:10.461Z,8.88
2019-05-18T09:05:40.115Z,9.65
2019-05-18T09:08:09.630Z,8.93
2019-05-18T09:10:39.491Z,9.70
2019-05-18T09:13:09.035Z,9.48
2019-05-18T09:15:38.607Z,9.05
2019-05-18T09:18:08.248Z,9.73
2019-05-18T09:20:37.884Z,9.98
2019-05-18T09:23:10.239Z,8.78
2019-05-18T09:25:39.714Z,9.43
2019-05-18T09:28:09.174Z,10.20
2019-05-18T09:30:41.210Z,9.45
2019-05-18T09:33:09.829Z,9.70
2019-05-18T09:35:39.396Z,9.20
2019-05-18T09:38:08.899Z,10.30
2019-05-18T09:40:38.732Z,10.15
2019-05-18T09:43:08.538Z,9.55
2019-05-18T09:45:38.039Z,9.18
2019-05-18T09:48:07.646Z,8.45
2019-05-18T09:50:37.216Z,8.83
2019-05-18T09:53:06.659Z,8.90
2019-05-18T09:55:36.251Z,8.55
2019-05-18T09:58:06.193Z,7.83
2019-05-18T10:00:38.934Z,9.28
2019-05-18T10:03:07.168Z,8.58
2019-05-18T10:05:36.695Z,7.60
2019-05-18T10:08:06.243Z,8.40
2019-05-18T10:10:35.695Z,8.38
2019-05-18T10:13:05.209Z,7.65
2019-05-18T10:15:35.191Z,8.25
2019-05-18T10:18:04.991Z,7.75
2019-05-18T10:20:34.486Z,7.45
2019-05-18T10:23:12.392Z,7.60
2019-05-18T10:25:35.247Z,7.53
2019-05-18T10:28:04.797Z,7.30
2019-05-18T10:30:34.239Z,7.47
2019-05-18T10:33:03.945Z,6.70
2019-05-18T10:35:33.574Z,6.75
2019-05-18T10:38:03.095Z,6.80
2019-05-18T10:40:32.737Z,6.72
2019-05-18T10:43:02.172Z,6.97
2019-05-18T10:45:32.067Z,6.20
2019-05-18T10:48:01.918Z,6.33
2019-05-18T10:50:31.544Z,6.62
2019-05-18T10:53:01.398Z,6.53
2019-05-18T10:55:31.011Z,6.45
2019-05-18T10:58:00.513Z,5.78
2019-05-18T11:00:30.720Z,6.17
2019-05-18T11:03:00.298Z,6.60
2019-05-18T11:05:29.805Z,6.33
2019-05-18T11:07:59.326Z,6.45
2019-05-18T11:10:29.056Z,5.90
2019-05-18T11:12:58.547Z,6.33
2019-05-18T11:15:28.129Z,6.28
2019-05-18T11:17:57.753Z,6.28
2019-05-18T11:20:27.591Z,5.90
2019-05-18T11:22:57.145Z,6.15
2019-05-18T11:25:26.664Z,6.72
2019-05-18T11:27:56.441Z,6.08
2019-05-18T11:30:26.130Z,5.85
2019-05-18T11:32:55.648Z,6.45
2019-05-18T11:35:25.265Z,6.70
2019-05-18T11:37:54.869Z,6.40
2019-05-18T11:40:24.468Z,6.40
2019-05-18T11:42:55.084Z,7.15
2019-05-18T11:45:25.279Z,6.75
2019-05-18T11:47:55.131Z,7.10
2019-05-18T11:50:25.698Z,6.40
2019-05-18T11:52:56.395Z,6.92
2019-05-18T11:55:26.124Z,6.60
2019-05-18T11:57:59.156Z,7.10
2019-05-18T12:00:29.094Z,6.10
2019-05-18T12:02:58.661Z,6.55
2019-05-18T12:05:28.154Z,6.05
2019-05-18T12:07:57.669Z,6.40
2019-05-18T12:10:27.128Z,6.62
2019-05-18T12:12:56.960Z,6.50
2019-05-18T12:15:26.652Z,6.12
2019-05-18T12:17:56.191Z,6.03
2019-05-18T12:20:25.850Z,5.67
2019-05-18T12:22:55.805Z,6.55
2019-05-18T12:25:25.377Z,6.33
2019-05-18T12:27:54.852Z,6.12
2019-05-18T12:30:24.775Z,5.78
2019-05-18T12:32:54.217Z,6.25
2019-05-18T12:35:23.701Z,6.17
2019-05-18T12:37:53.160Z,6.20
2019-05-18T12:40:23.590Z,5.60
2019-05-18T12:42:53.197Z,5.65
2019-05-18T12:45:23.153Z,6.12
2019-05-18T12:47:52.614Z,5.72
2019-05-18T12:50:22.921Z,5.00
2019-05-18T12:52:52.500Z,4.83
2019-05-18T12:55:22.286Z,6.00
2019-05-18T12:57:52.139Z,4.95
2019-05-18T13:00:22.116Z,5.47
2019-05-18T13:02:52.014Z,5.60
2019-05-18T13:05:21.645Z,5.17
2019-05-18T13:07:51.518Z,5.35
2019-05-18T13:10:21.705Z,4.90
2019-05-18T13:12:51.415Z,5.30
2019-05-18T13:15:21.135Z,4.70
2019-05-18T13:17:50.726Z,5.10
2019-05-18T13:20:21.684Z,4.90
2019-05-18T13:22:51.224Z,4.90
2019-05-18T13:25:26.469Z,4.40
2019-05-18T13:27:54.082Z,4.70
2019-05-18T13:30:24.098Z,4.30
2019-05-18T13:32:54.007Z,4.70
2019-05-18T13:35:23.641Z,4.72
2019-05-18T13:37:53.141Z,4.25
2019-05-18T13:40:23.601Z,4.15
2019-05-18T13:42:53.051Z,4.50
2019-05-18T13:45:22.729Z,4.83
2019-05-18T13:47:52.838Z,5.05
2019-05-18T13:50:23.372Z,4.20
2019-05-18T13:52:52.901Z,4.22
2019-05-18T13:55:23.741Z,4.60
2019-05-18T13:57:53.200Z,4.33
2019-05-18T14:00:23.174Z,4.80
2019-05-18T14:02:52.897Z,4.03
2019-05-18T14:05:23.152Z,4.25
2019-05-18T14:07:52.605Z,4.70
2019-05-18T14:10:22.164Z,4.40
2019-05-18T14:12:51.621Z,5.20
2019-05-18T14:15:22.981Z,5.28
2019-05-18T14:17:52.811Z,4.90
2019-05-18T14:20:22.559Z,4.65
2019-05-18T14:22:52.097Z,4.70
2019-05-18T14:25:21.644Z,4.70
2019-05-18T14:27:51.310Z,4.92
2019-05-18T14:30:23.364Z,5.00
2019-05-18T14:32:52.949Z,5.33
2019-05-18T14:35:22.397Z,4.75
2019-05-18T14:37:51.899Z,4.62
2019-05-18T14:40:21.493Z,4.80
2019-05-18T14:42:51.301Z,4.20
2019-05-18T14:45:20.895Z,4.33
2019-05-18T14:47:50.472Z,4.30
2019-05-18T14:50:20.312Z,3.80
2019-05-18T14:52:49.895Z,4.20
2019-05-18T14:55:32.868Z,4.55
2019-05-18T14:57:50.632Z,4.00
2019-05-18T15:00:20.715Z,4.37
2019-05-18T15:02:50.231Z,3.83
2019-05-18T15:05:20.365Z,4.00
2019-05-18T15:07:49.937Z,4.15
2019-05-18T15:10:20.343Z,3.92
2019-05-18T15:12:49.898Z,4.80
2019-05-18T15:15:19.662Z,4.00
2019-05-18T15:17:49.440Z,4.60
2019-05-18T15:20:19.318Z,4.50
2019-05-18T15:22:49.243Z,4.35
2019-05-18T15:25:18.848Z,4.50
2019-05-18T15:27:48.362Z,4.30
2019-05-18T15:30:18.927Z,4.03
2019-05-18T15:32:48.576Z,4.00
2019-05-18T15:35:18.350Z,3.92
2019-05-18T15:37:47.938Z,3.70
2019-05-18T15:40:17.630Z,4.42
2019-05-18T15:42:49.253Z,4.60
2019-05-18T15:45:19.533Z,4.30
2019-05-18T15:47:49.153Z,4.22
2019-05-18T15:50:18.960Z,4.60
2019-05-18T15:52:48.527Z,4.45
2019-05-18T15:55:18.080Z,4.33
2019-05-18T15:57:47.925Z,4.53
2019-05-18T16:00:18.145Z,4.35
2019-05-18T16:02:47.688Z,4.30
2019-05-18T16:05:17.506Z,3.83
2019-05-18T16:07:47.106Z,4.10
2019-05-18T16:10:17.289Z,3.60
2019-05-18T16:12:46.865Z,4.28
2019-05-18T16:15:16.476Z,4.33
2019-05-18T16:17:45.983Z,3.90
2019-05-18T16:20:15.772Z,7.78
2019-05-18T16:22:45.325Z,4.60
2019-05-18T16:25:15.876Z,4.20
2019-05-18T16:27:45.460Z,4.00
2019-05-18T16:30:16.357Z,4.08
2019-05-18T16:32:45.905Z,3.75
2019-05-18T16:35:15.987Z,4.60
2019-05-18T16:37:45.570Z,4.35
2019-05-18T16:40:15.902Z,3.77
2019-05-18T16:42:46.652Z,4.37
2019-05-18T16:45:19.092Z,4.10
2019-05-18T16:47:49.039Z,4.50
2019-05-18T16:50:19.237Z,4.00
2019-05-18T16:52:49.338Z,4.17
2019-05-18T16:55:19.045Z,4.05
2019-05-18T16:57:48.687Z,4.55
2019-05-18T17:00:18.666Z,4.72
2019-05-18T17:02:48.686Z,8.93
2019-05-18T17:05:18.693Z,8.50
2019-05-18T17:07:48.251Z,6.50
2019-05-18T17:10:18.843Z,4.22
2019-05-18T17:12:48.952Z,18.40
2019-05-18T17:15:19.429Z,9.90
2019-05-18T17:17:49.027Z,5.78
2019-05-18T17:20:19.224Z,6.70
2019-05-18T17:22:48.696Z,4.05
2019-05-18T17:25:18.354Z,5.90
2019-05-18T17:27:47.905Z,4.20
2019-05-18T17:30:17.943Z,5.08
2019-05-18T17:32:47.873Z,4.72
2019-05-18T17:35:17.576Z,4.00
2019-05-18T17:37:48.656Z,5.70
2019-05-18T17:40:18.240Z,4.15
2019-05-18T17:42:47.823Z,4.83
2019-05-18T17:45:17.431Z,4.22
2019-05-18T17:47:46.982Z,4.80
2019-05-18T17:50:16.569Z,4.90
2019-05-18T17:52:46.265Z,5.25
2019-05-18T17:55:16.738Z,5.62
2019-05-18T17:57:46.207Z,5.42
2019-05-18T18:00:16.621Z,5.33
2019-05-18T18:02:48.177Z,5.65
2019-05-18T18:05:17.934Z,5.67
2019-05-18T18:07:47.491Z,5.62
2019-05-18T18:10:17.981Z,7.08
2019-05-18T18:12:47.605Z,5.90
2019-05-18T18:15:17.186Z,5.87
2019-05-18T18:17:46.778Z,5.72
2019-05-18T18:20:16.785Z,6.08
2019-05-18T18:22:46.341Z,6.67
2019-05-18T18:25:15.991Z,6.33
2019-05-18T18:27:45.508Z,6.55
2019-05-18T18:30:15.829Z,5.87
2019-05-18T18:32:45.287Z,6.47
2019-05-18T18:35:14.928Z,6.70
2019-05-18T18:37:44.493Z,6.80
2019-05-18T18:40:14.877Z,6.78
2019-05-18T18:42:44.698Z,5.92
2019-05-18T18:45:14.728Z,6.30
2019-05-18T18:47:44.271Z,6.78
2019-05-18T18:50:14.196Z,6.53
2019-05-18T18:52:43.704Z,6.45
2019-05-18T18:55:13.436Z,6.90
2019-05-18T18:57:43.269Z,6.53
2019-05-18T19:00:13.297Z,6.50
2019-05-18T19:02:42.746Z,7.40
2019-05-18T19:05:14.390Z,6.10
2019-05-18T19:07:43.992Z,6.80
2019-05-18T19:10:14.070Z,6.87
2019-05-18T19:12:43.686Z,7.45
2019-05-18T19:15:13.511Z,7.25
2019-05-18T19:17:43.025Z,7.55
2019-05-18T19:20:13.453Z,6.75
2019-05-18T19:22:42.919Z,7.67
2019-05-18T19:25:13.335Z,7.25
2019-05-18T19:27:53.985Z,7.22
2019-05-18T19:30:14.523Z,8.28
2019-05-18T19:32:44.039Z,7.85
2019-05-18T19:35:13.894Z,9.10
2019-05-18T19:37:43.490Z,9.00
2019-05-18T19:40:14.814Z,7.75
2019-05-18T19:42:44.630Z,7.53
2019-05-18T19:45:14.724Z,10.35
2019-05-18T19:47:44.230Z,9.83
2019-05-18T19:50:14.681Z,9.18
2019-05-18T19:52:44.197Z,8.30
2019-05-18T19:55:14.190Z,8.78
2019-05-18T19:57:43.712Z,9.50
2019-05-18T20:00:13.507Z,10.38
2019-05-18T20:02:43.105Z,10.32
2019-05-18T20:05:12.691Z,9.48
2019-05-18T20:07:42.668Z,10.65
2019-05-18T20:10:13.311Z,11.00
2019-05-18T20:12:43.146Z,10.85
2019-05-18T20:15:13.358Z,11.70
2019-05-18T20:17:42.867Z,12.15
2019-05-18T20:20:13.272Z,11.55
2019-05-18T20:22:42.987Z,12.93
2019-05-18T20:25:13.734Z,12.60
2019-05-18T20:27:43.550Z,12.70
2019-05-18T20:30:14.381Z,13.68
2019-05-18T20:32:44.193Z,12.95
2019-05-18T20:35:14.525Z,12.03
2019-05-18T20:37:44.113Z,13.30
2019-05-18T20:40:14.456Z,13.55
2019-05-18T20:42:44.709Z,14.40
2019-05-18T20:45:14.160Z,14.83
2019-05-18T20:47:43.742Z,14.70
2019-05-18T20:50:15.280Z,13.85
2019-05-18T20:52:44.934Z,14.35
2019-05-18T20:55:14.617Z,14.65
2019-05-18T20:57:45.124Z,14.03
2019-05-18T21:00:15.209Z,14.98
2019-05-18T21:02:45.714Z,15.05
2019-05-18T21:05:15.405Z,16.12
2019-05-18T21:07:44.932Z,16.10
2019-05-18T21:10:15.109Z,16.93
2019-05-18T21:12:44.675Z,18.42
2019-05-18T21:15:14.900Z,17.17
2019-05-18T21:17:44.385Z,16.45
2019-05-18T21:20:14.345Z,16.62
2019-05-18T21:22:43.814Z,15.28
2019-05-18T21:25:13.633Z,16.27
2019-05-18T21:27:43.119Z,14.98
2019-05-18T21:30:13.196Z,14.75
2019-05-18T21:32:43.918Z,14.40
2019-05-18T21:35:13.536Z,13.85
2019-05-18T21:37:42.947Z,13.88
2019-05-18T21:40:13.201Z,14.30
2019-05-18T21:42:43.791Z,14.45
2019-05-18T21:45:13.643Z,15.00
2019-05-18T21:47:43.122Z,15.25
2019-05-18T21:50:14.149Z,15.83
2019-05-18T21:52:44.001Z,15.45
2019-05-18T21:55:13.635Z,15.63
2019-05-18T21:57:43.096Z,16.15
2019-05-18T22:00:13.331Z,15.95
2019-05-18T22:02:44.485Z,15.40
2019-05-18T22:05:14.208Z,15.75
2019-05-18T22:07:43.962Z,17.25
2019-05-18T22:10:25.415Z,15.98
2019-05-18T22:12:45.105Z,16.93
2019-05-18T22:15:15.557Z,15.83
2019-05-18T22:18:02.993Z,16.25
2019-05-18T22:20:33.799Z,16.45
2019-05-18T22:23:04.279Z,16.23
2019-05-18T22:25:34.319Z,16.12
2019-05-18T22:28:03.854Z,15.63
2019-05-18T22:30:33.573Z,15.72
2019-05-18T22:33:03.427Z,15.50
2019-05-18T22:35:32.950Z,15.15
2019-05-18T22:38:02.490Z,15.03
2019-05-18T22:40:32.008Z,15.30
2019-05-18T22:43:02.488Z,15.55
2019-05-18T22:45:32.426Z,15.20
2019-05-18T22:48:02.223Z,15.38
2019-05-18T22:50:32.103Z,15.65
2019-05-18T22:53:01.629Z,15.38
2019-05-18T22:55:31.165Z,15.70
2019-05-18T22:58:00.668Z,14.98
2019-05-18T23:00:30.463Z,14.63
2019-05-18T23:02:59.958Z,15.58
2019-05-18T23:05:29.457Z,15.78
2019-05-18T23:07:58.968Z,15.78
2019-05-18T23:10:28.450Z,15.53
2019-05-18T23:12:58.030Z,15.40
2019-05-18T23:15:27.492Z,15.13
2019-05-18T23:17:57.270Z,15.05
2019-05-18T23:20:26.786Z,15.63
2019-05-18T23:22:56.343Z,15.43
2019-05-18T23:25:25.881Z,15.55
2019-05-18T23:27:55.722Z,16.30
2019-05-18T23:30:25.252Z,16.02
2019-05-18T23:32:54.750Z,14.70
2019-05-18T23:35:24.238Z,16.62
2019-05-18T23:37:54.155Z,16.48
2019-05-18T23:40:23.723Z,15.58
2019-05-18T23:42:53.227Z,15.80
2019-05-18T23:45:22.691Z,16.15
2019-05-18T23:47:52.357Z,16.42
2019-05-18T23:50:21.885Z,16.57
2019-05-18T23:52:51.412Z,16.60
2019-05-18T23:55:20.997Z,16.67
2019-05-18T23:57:50.983Z,15.95
